Terminal Aerodrome Forecast
Issued by NWS

Home | Current Version | Previous Version | Text Only | Print | Product List | Glossary On
Versions: 1 2 3 4 5 6 7 8 9 10 11 12 13 14 15 16 17 18 19 20 21 22 23 24 25 26 27 28 29 30 31 32 33 34 35
000
FTUS45 KGJT 281125
TAFASE
TAF
KASE 281125Z 2812/2912 VRB03KT P6SM VCSH BKN020 OVC030
      TEMPO 2812/2816 -RA OVC020
     FM281600 02003KT P6SM VCSH SCT050 BKN070
     FM281900 36006KT P6SM SCT070 BKN090
     FM290200 20005KT P6SM SCT090
     FM290600 21004KT P6SM FEW090=

USA.gov is the U.S. government's official web portal to all federal, state and local government web resources and services.